Time;durP1;ratioP1;P1;durP2;ratioP2;P2;SDS_P1;SDS_P2;PMS_P1;PMS_P2;Temp;Humidity;BMP_temperature;BMP_pressure;BME280_temperature;BME280_humidity;BME280_pressure;Samples;Min_cycle;Max_cycle;Signal;HPM_P1;HPM_P2
2023/05/05 00:00:51;;;;;;;10.95;3.40;;;17.00;99.90;;;;;;5117796;28;20142;-71
2023/05/05 00:03:19;;;;;;;15.35;3.63;;;16.90;99.90;;;;;;5118262;28;20026;-72
2023/05/05 00:05:46;;;;;;;10.23;3.28;;;16.80;99.90;;;;;;5118247;28;20031;-71
2023/05/05 00:08:11;;;;;;;11.70;2.53;;;16.80;99.90;;;;;;5118360;28;20107;-71
2023/05/05 00:10:37;;;;;;;11.32;2.60;;;16.80;99.90;;;;;;5118267;28;20127;-70
2023/05/05 00:13:03;;;;;;;8.63;2.67;;;16.80;99.90;;;;;;5117899;28;20089;-71
2023/05/05 00:15:29;;;;;;;8.98;2.45;;;16.70;99.90;;;;;;5117818;28;20036;-71
2023/05/05 00:17:54;;;;;;;9.02;2.30;;;16.70;99.90;;;;;;5118071;28;20430;-70
2023/05/05 00:20:21;;;;;;;9.68;2.17;;;16.70;99.90;;;;;;5118246;28;20059;-71
2023/05/05 00:22:47;;;;;;;11.55;2.78;;;16.70;99.90;;;;;;5118010;28;20408;-71
2023/05/05 00:25:13;;;;;;;9.70;2.80;;;16.70;99.90;;;;;;5118161;28;20027;-70
2023/05/05 00:27:39;;;;;;;11.52;2.60;;;16.60;99.90;;;;;;5117962;28;20074;-70
2023/05/05 00:30:05;;;;;;;8.05;2.25;;;16.70;99.90;;;;;;5117565;28;20023;-71
2023/05/05 00:32:31;;;;;;;8.15;2.40;;;16.60;99.90;;;;;;5117957;28;20107;-70
2023/05/05 00:34:56;;;;;;;5.65;2.13;;;16.70;99.90;;;;;;5117860;28;20123;-70
2023/05/05 00:37:22;;;;;;;5.03;2.10;;;16.70;99.90;;;;;;5118042;28;20031;-71
2023/05/05 00:39:48;;;;;;;6.20;2.10;;;16.60;99.90;;;;;;5117769;28;20109;-71
2023/05/05 00:42:13;;;;;;;10.57;2.50;;;16.60;99.90;;;;;;5117976;28;20034;-70
2023/05/05 00:44:40;;;;;;;6.68;1.90;;;16.70;99.90;;;;;;5117715;28;20059;-70
2023/05/05 00:47:09;;;;;;;7.32;3.10;;;16.60;99.90;;;;;;5114622;28;20494;-70
2023/05/05 00:49:35;;;;;;;7.57;2.30;;;16.60;99.90;;;;;;5114500;28;20023;-70
2023/05/05 00:52:02;;;;;;;7.75;2.30;;;16.60;99.90;;;;;;5114474;28;20112;-70
2023/05/05 00:54:28;;;;;;;4.70;2.05;;;16.60;99.90;;;;;;5114375;28;20065;-71
2023/05/05 00:56:54;;;;;;;7.15;2.00;;;16.60;99.90;;;;;;5114285;28;20540;-70
2023/05/05 00:59:20;;;;;;;6.88;2.40;;;16.60;99.90;;;;;;5114388;28;20027;-70
2023/05/05 01:01:45;;;;;;;6.32;2.15;;;16.60;99.90;;;;;;5114338;28;20112;-71
2023/05/05 01:04:11;;;;;;;6.45;1.88;;;16.60;99.90;;;;;;5114241;28;20072;-71
2023/05/05 01:06:58;;;;;;;6.07;2.00;;;16.60;99.90;;;;;;5114710;28;20039;-71
2023/05/05 01:09:35;;;;;;;5.03;1.90;;;16.60;99.90;;;;;;5114238;28;20110;-70
2023/05/05 01:12:04;;;;;;;5.50;1.90;;;16.60;99.90;;;;;;5114164;28;20044;-71
2023/05/05 01:14:42;;;;;;;5.53;1.92;;;16.60;99.90;;;;;;5113451;28;20063;-71
2023/05/05 01:17:20;;;;;;;5.15;2.00;;;16.60;99.90;;;;;;5114026;28;20023;-71
2023/05/05 01:20:07;;;;;;;6.75;2.03;;;16.60;99.90;;;;;;5114021;28;20046;-71
2023/05/05 01:22:45;;;;;;;5.93;2.03;;;16.60;99.90;;;;;;5114390;28;20094;-70
2023/05/05 01:25:14;;;;;;;8.50;2.50;;;16.60;99.90;;;;;;5113818;28;20032;-71
2023/05/05 01:27:54;;;;;;;7.13;2.28;;;16.60;99.90;;;;;;5114072;28;20518;-70
2023/05/05 01:30:39;;;;;;;6.00;1.98;;;16.60;99.90;;;;;;5113741;28;20476;-69
2023/05/05 01:33:08;;;;;;;5.20;1.83;;;16.50;99.90;;;;;;5113930;28;20031;-70
2023/05/05 01:36:02;;;;;;;6.35;1.77;;;16.50;99.90;;;;;;5113674;28;20136;-70
2023/05/05 01:38:39;;;;;;;8.10;1.98;;;16.50;99.90;;;;;;5111738;28;20488;-70
2023/05/05 01:41:13;;;;;;;6.28;2.30;;;16.60;99.90;;;;;;5113589;28;20039;-71
2023/05/05 01:43:40;;;;;;;;;;;16.60;99.90;;;;;;5113611;28;20024;-71
2023/05/05 01:46:07;;;;;;;4.82;1.80;;;16.60;99.90;;;;;;5113587;28;19974;-71
2023/05/05 01:48:33;;;;;;;5.38;1.70;;;16.60;99.90;;;;;;5113542;28;20465;-71
2023/05/05 01:51:02;;;;;;;7.20;2.08;;;16.60;99.90;;;;;;5113430;28;20011;-71
2023/05/05 01:53:30;;;;;;;6.80;2.10;;;16.60;99.90;;;;;;5113693;28;20074;-70
2023/05/05 01:55:56;;;;;;;7.97;2.38;;;16.60;99.90;;;;;;5113380;28;20111;-70
2023/05/05 01:58:24;;;;;;;7.72;2.30;;;16.60;99.90;;;;;;5112676;28;20032;-70
2023/05/05 02:00:51;;;;;;;7.22;2.00;;;16.50;99.90;;;;;;5113179;28;20492;-70
2023/05/05 02:03:19;;;;;;;8.00;2.22;;;16.50;99.90;;;;;;5113090;28;20488;-70
2023/05/05 02:05:46;;;;;;;4.28;1.85;;;16.50;99.90;;;;;;5094949;28;20024;-70
2023/05/05 02:08:12;;;;;;;4.57;1.70;;;16.50;99.90;;;;;;5113005;28;20023;-70
2023/05/05 02:10:41;;;;;;;6.07;1.70;;;16.50;99.90;;;;;;5113361;28;20023;-70
2023/05/05 02:13:11;;;;;;;6.25;2.10;;;16.40;99.90;;;;;;5112463;28;20063;-70
2023/05/05 02:15:38;;;;;;;8.32;2.33;;;16.40;99.90;;;;;;5112890;28;20046;-70
2023/05/05 02:18:07;;;;;;;6.00;2.00;;;16.40;99.90;;;;;;5113009;28;20108;-71
2023/05/05 02:20:34;;;;;;;5.43;1.63;;;16.40;99.90;;;;;;5112790;28;20499;-71
2023/05/05 02:23:00;;;;;;;8.52;2.15;;;16.40;99.90;;;;;;5112740;28;20488;-70
2023/05/05 02:25:34;;;;;;;6.78;2.03;;;16.30;99.90;;;;;;5112960;28;20100;-71
2023/05/05 02:28:01;;;;;;;;;;;16.30;99.90;;;;;;5112844;28;20055;-70
2023/05/05 02:30:32;;;;;;;5.40;2.00;;;16.30;99.90;;;;;;5094316;28;19908;-70
2023/05/05 02:33:05;;;;;;;7.85;2.20;;;16.20;99.90;;;;;;5112927;28;20023;-70
2023/05/05 02:35:35;;;;;;;5.28;1.98;;;16.30;99.90;;;;;;5112594;28;20037;-70
2023/05/05 02:38:04;;;;;;;4.50;1.67;;;16.20;99.90;;;;;;5112319;28;20393;-71
2023/05/05 02:40:33;;;;;;;6.93;1.92;;;16.20;99.90;;;;;;5112067;28;20123;-71
2023/05/05 02:43:03;;;;;;;5.03;1.73;;;16.20;99.90;;;;;;5112301;28;20047;-71
2023/05/05 02:45:29;;;;;;;6.97;1.83;;;16.20;99.90;;;;;;5112427;28;20038;-71
2023/05/05 02:47:55;;;;;;;4.13;1.60;;;16.20;99.90;;;;;;5112443;28;20023;-71
2023/05/05 02:50:21;;;;;;;5.90;1.60;;;16.30;99.90;;;;;;5112610;28;20099;-72
2023/05/05 02:52:47;;;;;;;6.85;1.90;;;16.30;99.90;;;;;;5112106;28;20055;-71
2023/05/05 02:55:13;;;;;;;5.70;1.77;;;16.30;99.90;;;;;;5111926;28;20039;-71
2023/05/05 02:58:03;;;;;;;6.10;1.90;;;16.20;99.90;;;;;;5112229;28;20027;-72
2023/05/05 03:01:10;;;;;;;5.88;1.88;;;16.20;99.90;;;;;;5112060;28;20038;-71
2023/05/05 03:04:09;;;;;;;6.30;2.00;;;16.20;99.90;;;;;;5048972;28;20033;-71
2023/05/05 03:06:43;;;;;;;5.78;2.15;;;16.20;99.90;;;;;;5009460;28;20046;-71
2023/05/05 03:09:25;;;;;;;5.82;1.88;;;16.20;99.90;;;;;;5018590;28;20188;-71
2023/05/05 03:12:00;;;;;;;5.53;1.85;;;16.10;99.90;;;;;;5029222;28;20120;-71
2023/05/05 03:14:29;;;;;;;4.78;1.75;;;16.10;99.90;;;;;;5028942;28;20421;-71
2023/05/05 03:16:56;;;;;;;5.72;2.17;;;16.10;99.90;;;;;;5029027;28;20518;-72
2023/05/05 03:19:23;;;;;;;4.72;1.70;;;16.10;99.90;;;;;;5029312;28;20048;-71
2023/05/05 03:21:49;;;;;;;6.40;1.92;;;16.10;99.90;;;;;;5028938;28;20025;-71
2023/05/05 03:24:17;;;;;;;6.68;2.08;;;16.00;99.90;;;;;;5028997;28;20037;-71
2023/05/05 03:26:44;;;;;;;5.03;1.90;;;16.00;99.90;;;;;;5029035;28;20413;-71
2023/05/05 03:29:10;;;;;;;6.65;2.17;;;15.90;99.90;;;;;;5029244;28;20587;-71
2023/05/05 03:31:36;;;;;;;6.35;2.00;;;15.90;99.90;;;;;;5028834;28;20061;-71
2023/05/05 03:34:02;;;;;;;5.60;1.88;;;15.90;99.90;;;;;;5028979;28;20096;-71
2023/05/05 03:36:28;;;;;;;7.80;1.90;;;15.90;99.90;;;;;;5028766;28;20048;-71
2023/05/05 03:38:53;;;;;;;5.75;1.70;;;15.90;99.90;;;;;;5043718;28;20041;-71
2023/05/05 03:41:21;;;;;;;5.28;1.80;;;15.80;99.90;;;;;;5072193;28;20492;-71
2023/05/05 03:43:47;;;;;;;4.57;1.70;;;15.70;99.90;;;;;;5091116;28;20032;-71
2023/05/05 03:46:13;;;;;;;5.90;1.77;;;15.70;99.90;;;;;;5091568;28;20031;-72
2023/05/05 03:48:40;;;;;;;7.32;2.20;;;15.70;99.90;;;;;;5091169;28;20099;-71
2023/05/05 03:51:06;;;;;;;6.75;1.80;;;15.70;99.90;;;;;;5091030;28;20028;-71
2023/05/05 03:53:32;;;;;;;5.60;1.98;;;15.70;99.90;;;;;;5090737;28;20032;-71
2023/05/05 03:55:58;;;;;;;7.43;2.08;;;15.70;99.90;;;;;;5091160;28;20039;-72
2023/05/05 03:58:23;;;;;;;3.95;1.80;;;15.70;99.90;;;;;;5091098;28;20389;-71
2023/05/05 04:00:49;;;;;;;5.60;1.92;;;15.80;99.90;;;;;;5090997;28;20082;-71
2023/05/05 04:03:15;;;;;;;6.25;1.90;;;15.70;99.90;;;;;;5091290;28;20016;-72
2023/05/05 04:05:41;;;;;;;5.65;1.80;;;15.70;99.90;;;;;;5090944;28;20035;-71
2023/05/05 04:08:07;;;;;;;6.43;2.00;;;15.70;99.90;;;;;;5091875;28;20036;-71
2023/05/05 04:10:33;;;;;;;7.75;2.03;;;15.70;99.90;;;;;;5111299;28;20016;-72
2023/05/05 04:12:59;;;;;;;7.05;1.83;;;15.70;99.90;;;;;;5111424;28;20048;-72
2023/05/05 04:15:25;;;;;;;5.38;1.67;;;15.60;99.90;;;;;;5111354;28;20027;-72
2023/05/05 04:17:50;;;;;;;5.22;2.08;;;15.70;99.90;;;;;;5111280;28;20107;-71
2023/05/05 04:20:16;;;;;;;6.38;2.10;;;15.60;99.90;;;;;;5111029;28;20881;-72
2023/05/05 04:22:42;;;;;;;4.57;1.63;;;15.70;99.90;;;;;;5114827;28;20027;-71
2023/05/05 04:25:08;;;;;;;3.67;1.70;;;15.70;99.90;;;;;;5115094;28;20028;-71
2023/05/05 04:27:34;;;;;;;6.22;1.98;;;15.70;99.90;;;;;;5114993;28;20019;-71
2023/05/05 04:30:00;;;;;;;5.68;2.00;;;15.60;99.90;;;;;;5115422;28;20027;-71
2023/05/05 04:32:25;;;;;;;4.43;1.80;;;15.60;99.90;;;;;;5114935;28;20032;-71
2023/05/05 04:34:52;;;;;;;6.75;1.90;;;15.60;99.90;;;;;;5114431;28;20019;-72
2023/05/05 04:37:17;;;;;;;4.70;1.70;;;15.50;99.90;;;;;;5114869;28;20508;-72
2023/05/05 04:39:43;;;;;;;6.15;1.70;;;15.50;99.90;;;;;;5114710;28;20046;-71
2023/05/05 04:42:09;;;;;;;5.70;2.08;;;15.60;99.90;;;;;;5114354;28;20020;-71
2023/05/05 04:44:35;;;;;;;6.47;1.92;;;15.50;99.90;;;;;;5114984;28;20031;-71
2023/05/05 04:47:00;;;;;;;7.05;1.92;;;15.60;99.90;;;;;;5114620;28;20020;-71
2023/05/05 04:49:30;;;;;;;7.82;1.77;;;15.50;99.90;;;;;;5114663;28;20028;-71
2023/05/05 04:51:56;;;;;;;5.72;1.70;;;15.50;99.90;;;;;;5114238;28;20111;-71
2023/05/05 04:54:22;;;;;;;6.03;1.95;;;15.50;99.90;;;;;;5114786;28;20063;-71
2023/05/05 04:56:48;;;;;;;5.78;1.63;;;15.30;99.90;;;;;;5114561;28;20047;-71
2023/05/05 04:59:14;;;;;;;6.38;2.00;;;15.40;99.90;;;;;;5114423;28;20032;-72
2023/05/05 05:01:40;;;;;;;5.38;1.60;;;15.30;99.90;;;;;;5114403;28;20030;-71
2023/05/05 05:04:07;;;;;;;5.53;1.70;;;15.30;99.90;;;;;;5114326;28;20418;-71
2023/05/05 05:06:33;;;;;;;4.75;1.92;;;15.30;99.90;;;;;;5114321;28;20544;-70
2023/05/05 05:08:59;;;;;;;4.78;1.50;;;15.30;99.90;;;;;;5114118;28;20377;-71
2023/05/05 05:11:25;;;;;;;4.10;1.52;;;15.30;99.90;;;;;;5114097;28;20098;-71
2023/05/05 05:13:51;;;;;;;6.93;2.08;;;15.30;99.90;;;;;;5114002;28;20099;-71
2023/05/05 05:16:17;;;;;;;4.38;1.50;;;15.40;99.90;;;;;;5114283;28;20112;-72
2023/05/05 05:18:43;;;;;;;4.18;1.70;;;15.40;99.90;;;;;;5113879;28;20118;-71
2023/05/05 05:21:09;;;;;;;5.22;1.70;;;15.40;99.90;;;;;;5113632;28;20023;-71
2023/05/05 05:23:35;;;;;;;3.95;1.58;;;15.40;99.90;;;;;;5114305;28;20095;-71
2023/05/05 05:26:00;;;;;;;4.15;1.60;;;15.40;99.90;;;;;;5113975;28;20388;-72
2023/05/05 05:28:26;;;;;;;5.85;1.45;;;15.40;99.90;;;;;;5113914;28;20034;-71
2023/05/05 05:30:52;;;;;;;5.65;1.92;;;15.40;99.90;;;;;;5113879;28;20030;-72
2023/05/05 05:33:18;;;;;;;6.15;1.50;;;15.40;99.90;;;;;;5112958;28;20540;-71
2023/05/05 05:35:44;;;;;;;3.22;1.50;;;15.30;99.90;;;;;;5113395;28;20511;-72
2023/05/05 05:38:10;;;;;;;4.60;1.80;;;15.40;99.90;;;;;;5113599;28;20027;-71
2023/05/05 05:40:35;;;;;;;5.78;1.70;;;15.40;99.90;;;;;;5113205;28;20036;-72
2023/05/05 05:43:02;;;;;;;6.28;1.60;;;15.40;99.90;;;;;;5112935;28;20023;-72
2023/05/05 05:45:27;;;;;;;4.50;1.60;;;15.40;99.90;;;;;;5113550;28;20524;-70
2023/05/05 05:47:53;;;;;;;4.65;1.70;;;15.40;99.90;;;;;;5113376;28;20028;-73
2023/05/05 05:50:19;;;;;;;9.85;1.90;;;15.50;99.90;;;;;;5113255;28;20114;-75
2023/05/05 05:52:45;;;;;;;5.43;1.80;;;15.50;99.90;;;;;;5113601;28;20031;-72
2023/05/05 05:55:11;;;;;;;5.25;1.60;;;15.50;99.90;;;;;;5113331;28;20038;-74
2023/05/05 05:57:36;;;;;;;5.35;1.90;;;15.30;99.90;;;;;;5113007;28;20035;-75
2023/05/05 06:00:03;;;;;;;4.82;1.55;;;15.40;99.90;;;;;;5113410;28;20035;-75
2023/05/05 06:02:29;;;;;;;6.22;2.05;;;15.40;99.90;;;;;;5113202;28;20084;-75
2023/05/05 06:04:54;;;;;;;5.38;1.90;;;15.40;99.90;;;;;;5112673;28;20024;-75
2023/05/05 06:07:20;;;;;;;6.07;2.00;;;15.40;99.90;;;;;;5113218;28;20392;-75
2023/05/05 06:09:45;;;;;;;4.75;1.90;;;15.50;99.90;;;;;;5094401;28;20024;-75
2023/05/05 06:12:11;;;;;;;5.30;1.80;;;15.40;99.90;;;;;;5112989;28;20127;-75
2023/05/05 06:14:37;;;;;;;4.28;1.55;;;15.50;99.90;;;;;;5112982;28;20369;-75
2023/05/05 06:17:02;;;;;;;4.53;1.70;;;15.50;99.90;;;;;;5112632;28;20481;-74
2023/05/05 06:19:28;;;;;;;4.78;1.58;;;15.50;99.90;;;;;;5112439;28;20027;-75
2023/05/05 06:21:54;;;;;;;5.50;1.60;;;15.60;99.90;;;;;;5112764;28;20028;-75
2023/05/05 06:24:20;;;;;;;5.30;1.92;;;15.60;99.90;;;;;;5112602;28;20028;-75
2023/05/05 06:26:45;;;;;;;8.25;1.80;;;15.60;99.90;;;;;;5112870;28;20080;-74
2023/05/05 06:29:11;;;;;;;5.65;1.80;;;15.60;99.90;;;;;;5112606;28;20077;-75
2023/05/05 06:31:37;;;;;;;5.18;2.30;;;15.60;99.90;;;;;;5112831;28;20031;-76
2023/05/05 06:34:02;;;;;;;6.60;1.80;;;15.60;99.90;;;;;;5112187;28;20028;-75
2023/05/05 06:36:28;;;;;;;14.57;3.15;;;15.60;99.90;;;;;;5112541;28;20051;-73
2023/05/05 06:38:54;;;;;;;7.45;1.85;;;15.60;99.90;;;;;;5112011;28;20023;-74
2023/05/05 06:41:20;;;;;;;3.22;1.52;;;15.60;99.90;;;;;;5112174;28;20092;-75
2023/05/05 06:43:46;;;;;;;4.35;1.55;;;15.60;99.90;;;;;;5112277;28;20028;-74
2023/05/05 06:46:11;;;;;;;5.18;1.70;;;15.60;99.90;;;;;;5111535;28;20035;-75
2023/05/05 06:48:37;;;;;;;6.72;1.90;;;15.70;99.90;;;;;;5112287;28;20028;-74
2023/05/05 06:51:03;;;;;;;6.40;1.80;;;15.90;99.90;;;;;;5112274;28;20027;-74
2023/05/05 06:53:28;;;;;;;5.88;2.10;;;16.00;99.90;;;;;;5094014;28;20023;-73
2023/05/05 06:55:54;;;;;;;2.40;1.33;;;15.90;99.90;;;;;;5112230;28;20019;-73
2023/05/05 06:58:20;;;;;;;4.68;1.63;;;16.00;99.90;;;;;;5112541;28;20395;-74
2023/05/05 07:00:46;;;;;;;4.38;1.98;;;16.10;99.90;;;;;;5111443;28;20565;-72
2023/05/05 07:03:12;;;;;;;4.03;1.38;;;16.10;99.90;;;;;;5111484;28;20069;-73
2023/05/05 07:05:38;;;;;;;3.38;1.40;;;16.10;99.90;;;;;;5111531;28;20024;-73
2023/05/05 07:08:07;;;;;;;5.05;1.42;;;16.10;99.90;;;;;;5111050;28;20071;-72
2023/05/05 07:10:33;;;;;;;5.32;1.52;;;16.10;99.90;;;;;;5112238;28;20031;-71
2023/05/05 07:12:59;;;;;;;2.88;1.42;;;16.20;99.90;;;;;;5111519;28;20051;-71
2023/05/05 07:15:24;;;;;;;3.38;1.30;;;16.30;99.90;;;;;;5111952;28;20023;-71
2023/05/05 07:17:50;;;;;;;4.55;1.58;;;16.30;99.90;;;;;;5111122;28;20676;-70
2023/05/05 07:20:16;;;;;;;3.72;1.50;;;16.40;99.90;;;;;;5111930;28;20067;-70
2023/05/05 07:22:41;;;;;;;5.03;1.40;;;16.30;99.90;;;;;;5111735;28;20045;-70
2023/05/05 07:25:07;;;;;;;5.28;1.77;;;16.40;99.90;;;;;;5111591;28;20031;-70
2023/05/05 07:27:34;;;;;;;3.83;1.60;;;16.50;99.90;;;;;;5111887;28;20024;-71
2023/05/05 07:30:00;;;;;;;6.43;1.40;;;16.50;99.90;;;;;;5111525;28;20023;-71
2023/05/05 07:32:26;;;;;;;3.88;1.60;;;16.50;99.90;;;;;;5111801;28;20031;-71
2023/05/05 07:34:51;;;;;;;4.57;1.50;;;16.50;99.90;;;;;;5111510;28;20027;-71
2023/05/05 07:37:17;;;;;;;4.93;1.83;;;16.60;99.90;;;;;;5111660;28;20024;-73
2023/05/05 07:39:43;;;;;;;5.00;1.60;;;16.60;99.90;;;;;;5111362;28;20035;-72
2023/05/05 07:42:09;;;;;;;5.82;1.48;;;16.60;99.90;;;;;;5111566;28;20326;-73
2023/05/05 07:44:35;;;;;;;4.30;1.65;;;16.70;99.90;;;;;;5111451;28;20020;-72
2023/05/05 07:47:00;;;;;;;4.05;1.30;;;16.70;99.90;;;;;;5111527;28;20027;-73
2023/05/05 07:49:26;;;;;;;3.42;1.30;;;16.70;99.90;;;;;;5111732;28;20027;-72
2023/05/05 07:51:53;;;;;;;4.45;1.40;;;16.70;99.90;;;;;;5111519;28;20071;-73
2023/05/05 07:54:19;;;;;;;5.50;1.70;;;16.70;99.90;;;;;;5111813;28;20404;-72
2023/05/05 07:56:44;;;;;;;3.83;1.23;;;16.80;99.90;;;;;;5113527;28;20011;-72
2023/05/05 07:59:10;;;;;;;3.03;1.23;;;16.80;99.90;;;;;;5115226;28;20036;-73
2023/05/05 08:01:38;;;;;;;5.30;1.33;;;16.90;99.90;;;;;;5115313;28;20016;-72
2023/05/05 08:04:04;;;;;;;3.40;1.50;;;16.90;99.90;;;;;;5115684;28;20342;-73
2023/05/05 08:06:30;;;;;;;4.38;1.73;;;16.90;99.90;;;;;;5115535;28;20044;-72
2023/05/05 08:08:58;;;;;;;4.35;1.27;;;17.00;99.90;;;;;;5115222;28;20028;-73
2023/05/05 08:11:24;;;;;;;4.07;1.58;;;17.10;99.90;;;;;;5115368;28;20034;-73
2023/05/05 08:13:50;;;;;;;3.90;1.23;;;17.10;99.90;;;;;;5115281;28;20027;-72
2023/05/05 08:16:16;;;;;;;5.72;1.60;;;17.20;99.90;;;;;;5115137;28;20020;-73
2023/05/05 08:18:42;;;;;;;6.07;1.48;;;17.30;99.90;;;;;;5115247;28;20038;-72
2023/05/05 08:21:09;;;;;;;2.47;1.40;;;17.30;99.90;;;;;;5115474;28;20500;-72
2023/05/05 08:23:35;;;;;;;4.45;1.60;;;17.40;99.90;;;;;;5096658;28;20381;-72
2023/05/05 08:26:01;;;;;;;5.53;1.48;;;17.50;99.90;;;;;;5114974;28;20030;-72
2023/05/05 08:28:27;;;;;;;2.10;1.20;;;17.50;99.90;;;;;;5114954;28;20031;-72
2023/05/05 08:30:53;;;;;;;4.10;1.65;;;17.60;99.90;;;;;;5114906;28;20035;-72
2023/05/05 08:33:19;;;;;;;4.82;1.70;;;17.70;99.90;;;;;;5114985;28;20027;-72
2023/05/05 08:35:45;;;;;;;4.85;1.65;;;17.80;99.90;;;;;;5114931;28;20087;-72
2023/05/05 08:38:11;;;;;;;6.38;1.90;;;17.80;99.90;;;;;;5115221;28;20115;-72
2023/05/05 08:40:41;;;;;;;2.83;1.40;;;17.90;99.90;;;;;;5114727;28;20117;-72
2023/05/05 08:43:07;;;;;;;3.60;1.50;;;18.00;99.90;;;;;;5114390;28;20035;-72
2023/05/05 08:45:33;;;;;;;3.58;1.45;;;18.00;99.90;;;;;;5114788;28;20039;-72
2023/05/05 08:48:03;;;;;;;7.55;2.45;;;18.10;99.90;;;;;;5114742;28;20024;-72
2023/05/05 08:50:30;;;;;;;3.17;1.63;;;18.20;99.90;;;;;;5114552;28;20552;-72
2023/05/05 08:53:04;;;;;;;3.92;1.38;;;18.20;99.90;;;;;;5114478;28;20019;-72
2023/05/05 08:55:34;;;;;;;3.10;1.23;;;18.30;99.90;;;;;;5114442;28;20031;-72
2023/05/05 08:58:04;;;;;;;2.30;1.30;;;18.30;99.90;;;;;;5114467;28;20076;-73
2023/05/05 09:00:30;;;;;;;3.17;1.50;;;18.30;99.90;;;;;;5114263;28;20039;-72
2023/05/05 09:02:57;;;;;;;2.50;1.30;;;18.40;99.90;;;;;;5114290;28;20024;-73
2023/05/05 09:05:23;;;;;;;3.67;1.40;;;18.40;99.90;;;;;;5114606;28;20028;-72
2023/05/05 09:07:49;;;;;;;3.70;1.33;;;18.40;99.90;;;;;;5113107;28;20491;-72
2023/05/05 09:10:16;;;;;;;3.30;1.20;;;18.40;99.90;;;;;;5113973;28;20039;-73
2023/05/05 09:12:41;;;;;;;3.70;1.20;;;18.50;99.90;;;;;;5113740;28;20050;-73
2023/05/05 09:15:12;;;;;;;4.75;1.50;;;18.50;99.90;;;;;;5114281;28;20482;-73
2023/05/05 09:17:38;;;;;;;3.20;1.40;;;18.50;99.90;;;;;;5114404;28;20032;-73
2023/05/05 09:20:10;;;;;;;2.83;1.40;;;18.60;99.90;;;;;;5095749;28;20078;-73
2023/05/05 09:22:43;;;;;;;3.85;1.60;;;18.60;99.90;;;;;;5114189;28;20099;-73
2023/05/05 09:25:14;;;;;;;4.22;1.80;;;18.70;99.90;;;;;;5096026;28;20028;-72
2023/05/05 09:27:45;;;;;;;6.00;2.00;;;18.80;99.90;;;;;;5113638;28;20514;-73
2023/05/05 09:30:22;;;;;;;5.72;1.73;;;18.90;99.90;;;;;;5113862;28;20496;-73
2023/05/05 09:32:51;;;;;;;5.05;1.80;;;18.90;99.90;;;;;;5113826;28;20054;-72
2023/05/05 09:35:18;;;;;;;3.50;1.40;;;18.90;99.90;;;;;;5113728;28;20031;-73
2023/05/05 09:37:44;;;;;;;4.22;1.55;;;19.00;99.90;;;;;;5114185;28;20023;-72
2023/05/05 09:40:12;;;;;;;4.45;1.70;;;19.00;99.90;;;;;;5095301;28;20035;-72
2023/05/05 09:42:39;;;;;;;7.43;1.73;;;19.00;99.90;;;;;;5113483;28;20046;-72
2023/05/05 09:45:25;;;;;;;5.25;1.50;;;19.10;99.90;;;;;;5113727;28;20035;-73
2023/05/05 09:47:51;;;;;;;4.60;1.50;;;19.20;99.90;;;;;;5113547;28;20027;-72
2023/05/05 09:50:17;;;;;;;4.55;1.30;;;19.30;99.90;;;;;;5113501;28;20072;-72
2023/05/05 09:52:56;;;;;;;3.28;1.27;;;19.20;99.90;;;;;;5113615;28;20090;-73
2023/05/05 09:55:23;;;;;;;5.05;1.73;;;19.20;99.90;;;;;;5113087;28;20042;-73
2023/05/05 09:57:48;;;;;;;5.13;1.75;;;19.20;99.90;;;;;;5113367;28;20027;-72
2023/05/05 10:00:14;;;;;;;5.13;1.60;;;19.40;99.90;;;;;;5113266;28;20031;-72
2023/05/05 10:02:40;;;;;;;6.13;1.30;;;19.50;99.90;;;;;;5113241;28;20103;-72
2023/05/05 10:05:13;;;;;;;4.28;1.45;;;19.60;99.90;;;;;;5113318;28;20106;-72
2023/05/05 10:07:40;;;;;;;3.42;1.20;;;19.60;99.90;;;;;;5112664;28;20035;-75
2023/05/05 10:10:12;;;;;;;2.97;1.20;;;19.70;99.90;;;;;;5112665;28;20555;-74
2023/05/05 10:12:38;;;;;;;4.05;1.27;;;19.70;99.90;;;;;;5112417;28;20499;-74
2023/05/05 10:15:08;;;;;;;6.13;1.38;;;19.70;99.90;;;;;;5094725;28;20033;-75
2023/05/05 10:17:46;;;;;;;5.43;1.60;;;19.70;99.90;;;;;;5113424;28;20019;-75
2023/05/05 10:20:14;;;;;;;3.85;1.35;;;19.80;99.90;;;;;;5112701;28;20067;-75
2023/05/05 10:22:44;;;;;;;3.67;1.40;;;19.90;99.90;;;;;;5112666;28;20028;-75
2023/05/05 10:25:14;;;;;;;6.57;1.88;;;19.80;99.90;;;;;;5094270;28;20023;-74
2023/05/05 10:27:46;;;;;;;6.97;1.85;;;19.90;99.90;;;;;;5094614;28;20510;-75
2023/05/05 10:30:18;;;;;;;5.45;1.98;;;20.10;99.90;;;;;;5112813;28;20038;-74
2023/05/05 10:32:48;;;;;;;10.27;2.55;;;20.20;99.90;;;;;;5113326;28;20434;-75
2023/05/05 10:35:26;;;;;;;5.97;1.67;;;20.10;99.90;;;;;;5112892;28;20143;-75
2023/05/05 10:37:53;;;;;;;3.80;1.50;;;20.10;99.90;;;;;;5112821;28;20088;-74
2023/05/05 10:40:21;;;;;;;4.38;1.55;;;20.20;99.90;;;;;;5112152;28;20032;-77
2023/05/05 10:42:47;;;;;;;4.63;1.55;;;20.20;99.90;;;;;;5112245;28;20443;-75
2023/05/05 10:45:13;;;;;;;4.43;1.42;;;20.30;99.90;;;;;;5094149;28;20492;-74
2023/05/05 10:47:39;;;;;;;3.88;1.50;;;20.40;99.90;;;;;;5112182;28;20031;-76
2023/05/05 10:50:15;;;;;;;3.75;1.38;;;20.50;99.90;;;;;;5112655;28;20035;-76
2023/05/05 10:53:06;;;;;;;2.92;1.42;;;20.50;99.90;;;;;;5093814;28;20492;-74
2023/05/05 10:55:45;;;;;;;6.82;1.50;;;20.60;99.90;;;;;;5112044;28;20035;-75
2023/05/05 10:58:30;;;;;;;4.38;1.50;;;20.70;99.90;;;;;;5112301;28;20493;-75
2023/05/05 11:00:56;;;;;;;3.42;1.45;;;20.80;99.90;;;;;;5111716;28;20028;-75
2023/05/05 11:03:22;;;;;;;5.03;1.48;;;21.00;99.90;;;;;;5112081;28;20034;-75
2023/05/05 11:06:03;;;;;;;4.25;1.50;;;21.20;99.90;;;;;;5111933;28;20147;-75
2023/05/05 11:08:32;;;;;;;3.38;1.30;;;21.30;99.90;;;;;;5111989;28;20054;-75
2023/05/05 11:10:59;;;;;;;3.58;1.45;;;21.20;99.90;;;;;;5111916;28;20024;-75
2023/05/05 11:13:25;;;;;;;3.40;1.20;;;21.30;99.90;;;;;;5112253;28;20099;-74
2023/05/05 11:15:52;;;;;;;3.40;1.40;;;21.40;99.90;;;;;;5112377;28;20043;-75
2023/05/05 11:18:43;;;;;;;2.88;1.38;;;21.50;99.90;;;;;;5111538;28;20032;-74
2023/05/05 11:21:15;;;;;;;6.78;1.63;;;21.60;99.90;;;;;;5111687;28;20093;-72
2023/05/05 11:23:46;;;;;;;3.75;1.40;;;21.70;99.90;;;;;;5111765;28;20055;-72
2023/05/05 11:26:13;;;;;;;5.25;1.42;;;21.80;99.90;;;;;;5111780;28;20050;-72
2023/05/05 11:28:58;;;;;;;3.13;1.45;;;21.90;99.90;;;;;;5111778;28;20027;-71
2023/05/05 11:31:24;;;;;;;3.88;1.20;;;22.00;99.90;;;;;;5111259;28;20016;-71
2023/05/05 11:33:50;;;;;;;4.60;1.40;;;22.10;99.90;;;;;;5111727;28;20080;-71
2023/05/05 11:36:17;;;;;;;3.42;1.48;;;22.00;99.90;;;;;;5111586;28;20024;-72
2023/05/05 11:39:04;;;;;;;4.38;1.50;;;22.10;99.90;;;;;;5111401;28;20400;-72
2023/05/05 11:41:33;;;;;;;3.72;1.50;;;22.30;99.90;;;;;;5111523;28;20496;-72
2023/05/05 11:44:15;;;;;;;4.82;1.40;;;22.20;99.90;;;;;;5111731;28;20400;-71
2023/05/05 11:46:50;;;;;;;3.50;1.30;;;22.00;99.90;;;;;;5111998;28;20061;-71
2023/05/05 11:49:28;;;;;;;5.32;1.83;;;22.20;99.90;;;;;;5111543;28;20055;-72
2023/05/05 11:52:14;;;;;;;4.68;1.38;;;22.40;99.90;;;;;;5110950;28;20147;-72
2023/05/05 11:54:49;;;;;;;4.88;1.63;;;22.40;99.90;;;;;;5111491;28;20123;-71
2023/05/05 11:57:25;;;;;;;4.30;1.55;;;22.40;99.90;;;;;;5111496;28;20019;-72
2023/05/05 12:00:07;;;;;;;4.30;1.35;;;22.30;99.90;;;;;;5093263;28;20036;-72
2023/05/05 12:02:33;;;;;;;6.30;1.45;;;22.10;99.90;;;;;;5111336;28;20047;-72
2023/05/05 12:05:00;;;;;;;6.22;1.75;;;21.90;99.90;;;;;;5111374;28;20073;-72
2023/05/05 12:07:28;;;;;;;3.85;1.40;;;21.70;99.90;;;;;;5111464;28;20030;-72
2023/05/05 12:09:54;;;;;;;5.07;1.55;;;21.80;99.90;;;;;;5111406;28;20055;-72
2023/05/05 12:12:31;;;;;;;6.45;1.58;;;21.80;99.90;;;;;;5111085;28;20044;-72
2023/05/05 12:14:57;;;;;;;3.20;1.40;;;21.80;99.90;;;;;;5111431;28;20036;-72
2023/05/05 12:17:23;;;;;;;3.95;1.23;;;21.80;99.90;;;;;;5111801;28;20054;-72
2023/05/05 12:19:53;;;;;;;3.55;1.55;;;21.70;99.90;;;;;;5111328;28;20043;-71
2023/05/05 12:22:24;;;;;;;4.57;1.60;;;21.70;99.90;;;;;;5110890;28;20039;-71
2023/05/05 12:24:57;;;;;;;4.07;1.42;;;22.00;99.90;;;;;;5111723;28;20020;-73
2023/05/05 12:27:25;;;;;;;3.35;1.40;;;22.30;99.90;;;;;;5111356;28;20436;-72
2023/05/05 12:29:51;;;;;;;3.78;1.67;;;22.50;99.90;;;;;;5111067;28;20576;-72
2023/05/05 12:32:20;;;;;;;2.70;1.30;;;22.80;99.90;;;;;;5111133;28;20055;-73
2023/05/05 12:34:47;;;;;;;3.90;1.50;;;23.10;99.90;;;;;;5111549;28;20020;-73
2023/05/05 12:37:15;;;;;;;2.85;1.10;;;23.40;99.90;;;;;;5110670;28;20024;-73
2023/05/05 12:39:41;;;;;;;2.63;1.30;;;23.40;99.90;;;;;;5111404;28;20072;-72
2023/05/05 12:42:07;;;;;;;3.03;1.30;;;23.40;99.90;;;;;;5111983;28;20043;-73
2023/05/05 12:44:39;;;;;;;4.18;1.38;;;23.30;99.90;;;;;;5114856;28;20046;-72
2023/05/05 12:47:05;;;;;;;4.40;1.30;;;23.30;99.90;;;;;;5114646;28;20035;-73
2023/05/05 12:49:48;;;;;;;5.13;1.20;;;23.50;99.90;;;;;;5114349;28;20028;-72
2023/05/05 12:52:15;;;;;;;5.50;1.30;;;23.70;99.90;;;;;;5114920;28;20031;-73
2023/05/05 12:54:54;;;;;;;5.95;1.45;;;23.70;99.90;;;;;;5114874;28;20080;-73